createdAt,value
2018-12-08T00:00:45.611Z,8.83
2018-12-08T00:01:45.617Z,8.88
2018-12-08T00:02:45.557Z,8.84
2018-12-08T00:03:45.550Z,8.96
2018-12-08T00:04:45.524Z,8.93
2018-12-08T00:05:45.509Z,8.91
2018-12-08T00:06:45.467Z,8.78
2018-12-08T00:07:45.448Z,8.81
2018-12-08T00:08:45.441Z,8.83
2018-12-08T00:09:46.285Z,8.91
2018-12-08T00:10:45.391Z,8.93
2018-12-08T00:11:45.360Z,8.91
2018-12-08T00:12:45.365Z,8.87
2018-12-08T00:13:45.336Z,8.83
2018-12-08T00:14:45.780Z,8.83
2018-12-08T00:15:45.280Z,8.81
2018-12-08T00:16:45.251Z,8.93
2018-12-08T00:17:45.226Z,8.83
2018-12-08T00:18:45.193Z,8.90
2018-12-08T00:19:45.177Z,8.84
2018-12-08T00:20:45.155Z,8.76
2018-12-08T00:21:45.129Z,8.71
2018-12-08T00:22:45.121Z,8.63
2018-12-08T00:23:45.094Z,8.58
2018-12-08T00:24:45.088Z,8.63
2018-12-08T00:25:45.047Z,8.65
2018-12-08T00:26:45.028Z,8.57
2018-12-08T00:27:45.012Z,8.63
2018-12-08T00:28:44.980Z,8.63
2018-12-08T00:29:45.078Z,8.54
2018-12-08T00:30:44.952Z,8.55
2018-12-08T00:31:44.904Z,8.44
2018-12-08T00:32:44.919Z,8.35
2018-12-08T00:33:44.868Z,8.32
2018-12-08T00:34:44.839Z,8.25
2018-12-08T00:35:44.846Z,8.29
2018-12-08T00:36:44.805Z,8.36
2018-12-08T00:37:44.782Z,8.32
2018-12-08T00:38:44.750Z,8.44
2018-12-08T00:39:44.732Z,8.40
2018-12-08T00:40:44.727Z,8.29
2018-12-08T00:41:44.685Z,8.39
2018-12-08T00:42:44.660Z,8.47
2018-12-08T00:43:44.659Z,8.47
2018-12-08T00:44:44.642Z,8.26
2018-12-08T00:45:44.723Z,8.32
2018-12-08T00:46:44.573Z,8.11
2018-12-08T00:47:44.555Z,8.14
2018-12-08T00:48:44.542Z,8.15
2018-12-08T00:49:44.498Z,8.11
2018-12-08T00:50:44.476Z,8.14
2018-12-08T00:51:44.457Z,8.17
2018-12-08T00:52:44.439Z,8.12
2018-12-08T00:53:44.417Z,8.14
2018-12-08T00:54:44.415Z,8.18
2018-12-08T00:55:44.399Z,8.26
2018-12-08T00:56:44.375Z,8.28
2018-12-08T00:57:44.323Z,8.28
2018-12-08T00:58:44.298Z,8.17
2018-12-08T00:59:44.309Z,8.15
2018-12-08T01:00:44.247Z,8.02
2018-12-08T01:01:44.230Z,8.12
2018-12-08T01:02:44.208Z,8.08
2018-12-08T01:03:44.221Z,8.15
2018-12-08T01:04:44.167Z,8.08
2018-12-08T01:05:44.170Z,8.07
2018-12-08T01:06:44.135Z,8.04
2018-12-08T01:07:44.112Z,8.02
2018-12-08T01:08:44.076Z,7.97
2018-12-08T01:09:44.086Z,7.85
2018-12-08T01:10:44.028Z,8.00
2018-12-08T01:11:44.038Z,7.87
2018-12-08T01:12:44.012Z,8.07
2018-12-08T01:13:43.954Z,8.07
2018-12-08T01:14:43.935Z,8.04
2018-12-08T01:15:43.926Z,7.99
2018-12-08T01:16:43.904Z,7.94
2018-12-08T01:17:43.876Z,7.99
2018-12-08T01:18:43.912Z,7.96
2018-12-08T01:19:43.850Z,8.11
2018-12-08T01:20:43.798Z,8.12
2018-12-08T01:21:43.799Z,8.22
2018-12-08T01:22:43.754Z,8.18
2018-12-08T01:23:43.728Z,8.21
2018-12-08T01:24:44.275Z,8.14
2018-12-08T01:25:43.724Z,8.18
2018-12-08T01:26:44.301Z,8.11
2018-12-08T01:27:43.643Z,8.15
2018-12-08T01:28:43.631Z,8.12
2018-12-08T01:29:43.597Z,8.12
2018-12-08T01:30:43.572Z,8.21
2018-12-08T01:31:43.568Z,8.28
2018-12-08T01:32:43.545Z,8.25
2018-12-08T01:33:43.510Z,8.30
2018-12-08T01:34:43.513Z,8.29
2018-12-08T01:35:43.488Z,8.32
2018-12-08T01:36:43.453Z,8.33
2018-12-08T01:37:43.414Z,8.25
2018-12-08T01:38:43.401Z,8.29
2018-12-08T01:39:43.388Z,8.21
2018-12-08T01:40:43.350Z,8.30
2018-12-08T01:41:43.808Z,8.29
2018-12-08T01:42:43.343Z,8.26
2018-12-08T01:43:43.304Z,8.22
2018-12-08T01:44:43.282Z,8.26
2018-12-08T01:45:43.234Z,8.32
2018-12-08T01:46:43.215Z,8.29
2018-12-08T01:47:43.199Z,8.32
2018-12-08T01:48:43.177Z,8.30
2018-12-08T01:49:43.142Z,8.26
2018-12-08T01:50:43.125Z,8.22
2018-12-08T01:51:43.097Z,8.37
2018-12-08T01:52:43.093Z,8.35
2018-12-08T01:53:43.090Z,8.40
2018-12-08T01:54:43.029Z,8.32
2018-12-08T01:55:43.019Z,8.35
2018-12-08T01:56:43.027Z,8.37
2018-12-08T01:57:42.968Z,8.37
2018-12-08T01:58:42.936Z,8.37
2018-12-08T01:59:42.917Z,8.42
2018-12-08T02:00:42.896Z,8.40
2018-12-08T02:01:42.909Z,8.44
2018-12-08T02:02:43.815Z,8.45
2018-12-08T02:03:42.842Z,8.40
2018-12-08T02:04:42.822Z,8.51
2018-12-08T02:05:42.813Z,8.45
2018-12-08T02:06:42.752Z,8.44
2018-12-08T02:07:42.733Z,8.40
2018-12-08T02:08:42.746Z,8.42
2018-12-08T02:09:42.683Z,8.42
2018-12-08T02:10:42.670Z,8.50
2018-12-08T02:11:42.647Z,8.58
2018-12-08T02:12:42.646Z,8.50
2018-12-08T02:13:42.650Z,8.44
2018-12-08T02:14:42.570Z,8.47
2018-12-08T02:15:42.583Z,8.48
2018-12-08T02:16:42.547Z,8.42
2018-12-08T02:17:42.507Z,8.48
2018-12-08T02:18:42.517Z,8.39
2018-12-08T02:19:42.475Z,8.42
2018-12-08T02:20:42.446Z,8.47
2018-12-08T02:21:42.417Z,8.44
2018-12-08T02:22:42.404Z,8.42
2018-12-08T02:23:42.382Z,8.47
2018-12-08T02:24:42.415Z,8.47
2018-12-08T02:25:42.331Z,8.44
2018-12-08T02:26:42.312Z,8.42
2018-12-08T02:27:42.293Z,8.39
2018-12-08T02:28:42.270Z,8.44
2018-12-08T02:29:42.257Z,8.45
2018-12-08T02:30:42.225Z,8.44
2018-12-08T02:31:42.180Z,8.48
2018-12-08T02:32:42.200Z,8.48
2018-12-08T02:33:42.155Z,8.40
2018-12-08T02:34:42.148Z,8.42
2018-12-08T02:35:42.096Z,8.40
2018-12-08T02:36:42.111Z,8.37
2018-12-08T02:37:42.058Z,8.35
2018-12-08T02:38:42.256Z,8.33
2018-12-08T02:39:42.014Z,8.37
2018-12-08T02:40:41.999Z,8.25
2018-12-08T02:41:41.964Z,8.22
2018-12-08T02:42:41.953Z,8.14
2018-12-08T02:43:41.923Z,8.29
2018-12-08T02:44:41.900Z,8.29
2018-12-08T02:45:41.879Z,8.22
2018-12-08T02:46:41.846Z,8.21
2018-12-08T02:47:41.823Z,8.29
2018-12-08T02:48:41.817Z,8.28
2018-12-08T02:49:41.782Z,8.26
2018-12-08T02:50:41.817Z,8.14
2018-12-08T02:51:41.741Z,8.18
2018-12-08T02:52:42.321Z,8.12
2018-12-08T02:53:41.700Z,8.14
2018-12-08T02:54:41.669Z,8.11
2018-12-08T02:55:41.737Z,8.25
2018-12-08T02:56:41.629Z,8.12
2018-12-08T02:57:41.608Z,8.21
2018-12-08T02:58:41.595Z,8.21
2018-12-08T02:59:41.550Z,8.21
2018-12-08T03:00:41.528Z,8.22
2018-12-08T03:01:41.595Z,8.28
2018-12-08T03:02:41.511Z,8.29
2018-12-08T03:03:41.464Z,8.28
2018-12-08T03:04:41.452Z,8.26
2018-12-08T03:05:41.424Z,8.28
2018-12-08T03:06:41.397Z,8.30
2018-12-08T03:07:41.387Z,8.30
2018-12-08T03:08:41.346Z,8.25
2018-12-08T03:09:41.837Z,8.29
2018-12-08T03:10:41.331Z,8.29
2018-12-08T03:11:41.821Z,8.35
2018-12-08T03:12:41.326Z,8.39
2018-12-08T03:13:41.255Z,8.30
2018-12-08T03:14:41.840Z,8.28
2018-12-08T03:15:41.191Z,8.26
2018-12-08T03:16:41.185Z,8.14
2018-12-08T03:17:41.147Z,8.14
2018-12-08T03:18:41.119Z,8.12
2018-12-08T03:19:41.883Z,8.11
2018-12-08T03:20:41.078Z,8.07
2018-12-08T03:21:41.065Z,8.07
2018-12-08T03:22:41.037Z,8.12
2018-12-08T03:23:41.027Z,8.17
2018-12-08T03:24:41.075Z,8.28
2018-12-08T03:25:40.956Z,8.10
2018-12-08T03:26:40.931Z,8.25
2018-12-08T03:27:40.921Z,8.11
2018-12-08T03:28:40.895Z,8.11
2018-12-08T03:29:40.881Z,8.17
2018-12-08T03:30:40.864Z,8.14
2018-12-08T03:31:40.825Z,8.11
2018-12-08T03:32:40.829Z,8.15
2018-12-08T03:33:40.793Z,8.11
2018-12-08T03:34:40.752Z,8.14
2018-12-08T03:35:40.735Z,8.18
2018-12-08T03:36:40.738Z,8.21
2018-12-08T03:37:40.688Z,8.11
2018-12-08T03:38:40.681Z,8.12
2018-12-08T03:39:40.636Z,8.12
2018-12-08T03:40:40.634Z,8.14
2018-12-08T03:41:40.621Z,8.15
2018-12-08T03:42:40.583Z,8.15
2018-12-08T03:43:40.557Z,8.14
2018-12-08T03:44:40.547Z,8.12
2018-12-08T03:45:40.562Z,8.11
2018-12-08T03:46:40.496Z,8.12
2018-12-08T03:47:40.469Z,8.14
2018-12-08T03:48:40.439Z,8.11
2018-12-08T03:49:40.432Z,8.07
2018-12-08T03:50:40.398Z,8.03
2018-12-08T03:51:40.372Z,8.02
2018-12-08T03:52:40.351Z,7.96
2018-12-08T03:53:40.324Z,8.12
2018-12-08T03:54:40.319Z,8.08
2018-12-08T03:55:40.373Z,8.12
2018-12-08T03:56:40.251Z,8.08
2018-12-08T03:57:40.235Z,8.10
2018-12-08T03:58:40.228Z,8.03
2018-12-08T03:59:40.217Z,8.03
2018-12-08T04:00:40.166Z,7.85
2018-12-08T04:01:40.145Z,7.92
2018-12-08T04:02:40.114Z,8.00
2018-12-08T04:03:40.092Z,7.96
2018-12-08T04:04:40.077Z,7.92
2018-12-08T04:05:40.050Z,7.89
2018-12-08T04:06:40.052Z,7.93
2018-12-08T04:07:40.031Z,7.92
2018-12-08T04:08:40.012Z,7.79
2018-12-08T04:09:39.963Z,7.84
2018-12-08T04:10:39.941Z,7.77
2018-12-08T04:11:39.957Z,7.66
2018-12-08T04:12:39.904Z,7.75
2018-12-08T04:13:39.878Z,7.75
2018-12-08T04:14:39.842Z,7.74
2018-12-08T04:15:39.824Z,7.74
2018-12-08T04:16:39.807Z,7.75
2018-12-08T04:17:39.785Z,7.74
2018-12-08T04:18:39.762Z,7.71
2018-12-08T04:19:39.727Z,7.60
2018-12-08T04:20:39.724Z,7.63
2018-12-08T04:21:39.699Z,7.69
2018-12-08T04:22:39.673Z,7.67
2018-12-08T04:23:39.649Z,7.72
2018-12-08T04:24:39.632Z,7.67
2018-12-08T04:25:39.610Z,7.74
2018-12-08T04:26:39.589Z,7.58
2018-12-08T04:27:39.561Z,7.59
2018-12-08T04:28:39.536Z,7.66
2018-12-08T04:29:39.505Z,7.59
2018-12-08T04:30:39.473Z,7.58
2018-12-08T04:31:39.463Z,7.53
2018-12-08T04:32:39.441Z,7.59
2018-12-08T04:33:39.409Z,7.56
2018-12-08T04:34:39.381Z,7.42
2018-12-08T04:35:39.380Z,7.53
2018-12-08T04:36:39.339Z,7.55
2018-12-08T04:37:39.344Z,7.53
2018-12-08T04:38:39.332Z,7.63
2018-12-08T04:39:39.261Z,7.69
2018-12-08T04:40:39.247Z,7.71
2018-12-08T04:41:39.296Z,7.75
2018-12-08T04:42:39.202Z,7.77
2018-12-08T04:43:39.177Z,7.74
2018-12-08T04:44:39.148Z,7.72
2018-12-08T04:45:39.153Z,7.78
2018-12-08T04:46:39.101Z,7.79
2018-12-08T04:47:39.095Z,7.84
2018-12-08T04:48:39.056Z,7.82
2018-12-08T04:49:39.043Z,7.90
2018-12-08T04:50:39.015Z,7.96
2018-12-08T04:51:38.986Z,7.87
2018-12-08T04:52:38.967Z,7.81
2018-12-08T04:53:38.961Z,7.82
2018-12-08T04:54:38.918Z,7.89
2018-12-08T04:55:38.897Z,7.87
2018-12-08T04:56:38.867Z,7.90
2018-12-08T04:57:38.861Z,7.92
2018-12-08T04:58:38.842Z,7.81
2018-12-08T04:59:38.809Z,7.84
2018-12-08T05:00:38.804Z,7.94
2018-12-08T05:01:38.765Z,7.92
2018-12-08T05:02:38.742Z,7.92
2018-12-08T05:03:38.742Z,7.90
2018-12-08T05:04:38.688Z,7.90
2018-12-08T05:05:38.671Z,7.87
2018-12-08T05:06:39.351Z,7.92
2018-12-08T05:07:38.684Z,7.93
2018-12-08T05:08:38.611Z,7.94
2018-12-08T05:09:38.591Z,7.93
2018-12-08T05:10:38.559Z,7.99
2018-12-08T05:11:38.550Z,8.02
2018-12-08T05:12:39.353Z,8.07
2018-12-08T05:13:38.493Z,8.14
2018-12-08T05:14:38.476Z,8.10
2018-12-08T05:15:38.444Z,8.18
2018-12-08T05:16:38.422Z,8.28
2018-12-08T05:17:38.393Z,8.11
2018-12-08T05:18:38.368Z,8.28
2018-12-08T05:19:38.345Z,8.14
2018-12-08T05:20:38.329Z,8.25
2018-12-08T05:21:38.322Z,8.10
2018-12-08T05:22:38.303Z,8.11
2018-12-08T05:23:38.261Z,8.12
2018-12-08T05:24:38.252Z,8.14
2018-12-08T05:25:38.262Z,8.14
2018-12-08T05:26:38.194Z,8.15
2018-12-08T05:27:38.874Z,8.11
2018-12-08T05:28:38.175Z,8.20
2018-12-08T05:29:38.121Z,8.28
2018-12-08T05:30:38.106Z,8.33
2018-12-08T05:31:38.084Z,8.26
2018-12-08T05:32:38.065Z,8.30
2018-12-08T05:33:38.923Z,8.25
2018-12-08T05:34:38.011Z,8.25
2018-12-08T05:35:38.021Z,8.25
2018-12-08T05:36:37.966Z,8.26
2018-12-08T05:37:37.982Z,8.15
2018-12-08T05:38:37.921Z,8.26
2018-12-08T05:39:37.906Z,8.15
2018-12-08T05:40:37.868Z,8.25
2018-12-08T05:41:37.852Z,8.11
2018-12-08T05:42:37.851Z,8.17
2018-12-08T05:43:37.810Z,8.25
2018-12-08T05:44:38.361Z,8.12
2018-12-08T05:45:37.762Z,8.14
2018-12-08T05:46:37.747Z,8.07
2018-12-08T05:47:37.730Z,8.11
2018-12-08T05:48:37.715Z,8.11
2018-12-08T05:49:37.680Z,8.10
2018-12-08T05:50:37.644Z,8.10
2018-12-08T05:51:37.625Z,8.14
2018-12-08T05:52:37.606Z,8.10
2018-12-08T05:53:37.585Z,8.10
2018-12-08T05:54:37.564Z,7.99
2018-12-08T05:55:37.535Z,8.08
2018-12-08T05:56:38.391Z,8.08
2018-12-08T05:57:37.495Z,8.14
2018-12-08T05:58:37.467Z,8.14
2018-12-08T05:59:37.452Z,8.15
2018-12-08T06:00:37.424Z,8.14
2018-12-08T06:01:37.419Z,8.03
2018-12-08T06:02:37.376Z,8.14
2018-12-08T06:03:37.871Z,8.14
2018-12-08T06:04:37.340Z,8.11
2018-12-08T06:05:37.310Z,8.12
2018-12-08T06:06:37.278Z,8.08
2018-12-08T06:07:37.273Z,8.08
2018-12-08T06:08:37.237Z,8.14
2018-12-08T06:09:37.217Z,8.08
2018-12-08T06:10:37.198Z,7.99
2018-12-08T06:11:37.195Z,7.87
2018-12-08T06:12:37.143Z,7.99
2018-12-08T06:13:37.121Z,7.94
2018-12-08T06:14:37.104Z,7.87
2018-12-08T06:15:37.077Z,7.87
2018-12-08T06:16:37.068Z,7.79
2018-12-08T06:17:37.065Z,7.67
2018-12-08T06:18:37.052Z,7.71
2018-12-08T06:19:37.010Z,7.72
2018-12-08T06:20:36.968Z,7.72
2018-12-08T06:21:37.877Z,7.67
2018-12-08T06:22:36.917Z,7.75
2018-12-08T06:23:36.900Z,7.74
2018-12-08T06:24:36.878Z,7.77
2018-12-08T06:25:36.890Z,7.69
2018-12-08T06:26:36.849Z,7.53
2018-12-08T06:27:36.817Z,7.56
2018-12-08T06:28:36.804Z,7.62
2018-12-08T06:29:37.373Z,7.59
2018-12-08T06:30:36.733Z,7.50
2018-12-08T06:31:36.735Z,7.53
2018-12-08T06:32:36.709Z,7.56
2018-12-08T06:33:36.684Z,7.59
2018-12-08T06:34:36.679Z,7.67
2018-12-08T06:35:36.636Z,7.72
2018-12-08T06:36:36.602Z,7.72
2018-12-08T06:37:36.582Z,7.60
2018-12-08T06:38:36.547Z,7.71
2018-12-08T06:39:36.549Z,7.71
2018-12-08T06:40:36.527Z,7.74
2018-12-08T06:41:36.507Z,7.81
2018-12-08T06:42:36.469Z,7.85
2018-12-08T06:43:36.475Z,7.87
2018-12-08T06:44:36.411Z,7.90
2018-12-08T06:45:36.386Z,7.85
2018-12-08T06:46:36.376Z,8.03
2018-12-08T06:47:36.354Z,8.14
2018-12-08T06:48:36.322Z,8.00
2018-12-08T06:49:36.300Z,7.97
2018-12-08T06:50:36.299Z,8.04
2018-12-08T06:51:36.244Z,7.93
2018-12-08T06:52:36.238Z,8.03
2018-12-08T06:53:36.206Z,8.10
2018-12-08T06:54:36.177Z,8.11
2018-12-08T06:55:36.183Z,8.26
2018-12-08T06:56:36.133Z,8.20
2018-12-08T06:57:36.127Z,8.17
2018-12-08T06:58:36.091Z,8.12
2018-12-08T06:59:36.061Z,8.14
2018-12-08T07:00:36.046Z,8.12
2018-12-08T07:01:36.039Z,8.15
2018-12-08T07:02:35.995Z,8.32
2018-12-08T07:03:35.972Z,8.20
2018-12-08T07:04:35.976Z,8.18
2018-12-08T07:05:35.927Z,8.26
2018-12-08T07:06:35.906Z,8.26
2018-12-08T07:07:35.892Z,8.21
2018-12-08T07:08:35.866Z,8.25
2018-12-08T07:09:36.402Z,8.18
2018-12-08T07:10:35.818Z,8.21
2018-12-08T07:11:35.790Z,8.12
2018-12-08T07:12:35.771Z,8.17
2018-12-08T07:13:36.399Z,8.10
2018-12-08T07:14:35.801Z,8.08
2018-12-08T07:15:35.699Z,8.04
2018-12-08T07:16:35.675Z,8.12
2018-12-08T07:17:35.650Z,8.17
2018-12-08T07:18:35.630Z,8.20
2018-12-08T07:19:35.606Z,8.12
2018-12-08T07:20:35.596Z,8.22
2018-12-08T07:21:35.583Z,8.25
2018-12-08T07:22:35.548Z,8.21
2018-12-08T07:23:36.395Z,8.33
2018-12-08T07:24:35.497Z,8.33
2018-12-08T07:25:35.488Z,8.40
2018-12-08T07:26:35.450Z,8.37
2018-12-08T07:27:35.434Z,8.26
2018-12-08T07:28:35.398Z,8.29
2018-12-08T07:29:35.382Z,8.26
2018-12-08T07:30:35.400Z,8.20
2018-12-08T07:31:35.335Z,8.29
2018-12-08T07:32:38.807Z,8.30
2018-12-08T07:33:35.293Z,8.25
2018-12-08T07:34:35.284Z,8.25
2018-12-08T07:35:35.245Z,8.35
2018-12-08T07:36:35.223Z,8.35
2018-12-08T07:37:35.216Z,8.40
2018-12-08T07:38:35.175Z,8.37
2018-12-08T07:39:35.152Z,8.36
2018-12-08T07:40:35.133Z,8.39
2018-12-08T07:41:35.107Z,8.40
2018-12-08T07:42:35.085Z,8.39
2018-12-08T07:43:35.067Z,8.42
2018-12-08T07:44:35.041Z,8.37
2018-12-08T07:45:35.013Z,8.33
2018-12-08T07:46:35.015Z,8.35
2018-12-08T07:47:34.973Z,8.33
2018-12-08T07:48:34.958Z,8.30
2018-12-08T07:49:34.929Z,8.26
2018-12-08T07:50:34.922Z,8.28
2018-12-08T07:51:34.882Z,8.26
2018-12-08T07:52:34.860Z,8.35
2018-12-08T07:53:34.840Z,8.29
2018-12-08T07:54:34.818Z,8.20
2018-12-08T07:55:34.799Z,8.10
2018-12-08T07:56:34.767Z,8.22
2018-12-08T07:57:34.747Z,8.25
2018-12-08T07:58:34.928Z,8.10
2018-12-08T07:59:34.745Z,8.11
2018-12-08T08:00:34.684Z,8.11
2018-12-08T08:01:34.649Z,8.08
2018-12-08T08:02:34.643Z,8.00
2018-12-08T08:03:34.609Z,8.10
2018-12-08T08:04:34.588Z,7.97
2018-12-08T08:05:34.579Z,7.99
2018-12-08T08:06:34.547Z,7.96
2018-12-08T08:07:34.537Z,8.03
2018-12-08T08:08:34.503Z,8.15
2018-12-08T08:09:34.470Z,8.21
2018-12-08T08:10:34.459Z,8.11
2018-12-08T08:11:34.459Z,8.12
2018-12-08T08:12:34.411Z,8.12
2018-12-08T08:13:34.382Z,8.25
2018-12-08T08:14:34.408Z,8.26
2018-12-08T08:15:34.356Z,8.26
2018-12-08T08:16:34.328Z,8.32
2018-12-08T08:17:34.303Z,8.28
2018-12-08T08:18:34.284Z,8.32
2018-12-08T08:19:34.271Z,8.36
2018-12-08T08:20:34.917Z,8.36
2018-12-08T08:21:34.201Z,8.32
2018-12-08T08:22:34.172Z,8.37
2018-12-08T08:23:34.904Z,8.36
2018-12-08T08:24:34.131Z,8.36
2018-12-08T08:25:34.127Z,8.39
2018-12-08T08:26:34.118Z,8.33
2018-12-08T08:27:34.901Z,8.32
2018-12-08T08:28:34.054Z,8.39
2018-12-08T08:29:34.034Z,8.36
2018-12-08T08:30:34.907Z,8.36
2018-12-08T08:31:33.985Z,8.42
2018-12-08T08:32:33.947Z,8.33
2018-12-08T08:33:33.968Z,8.37
2018-12-08T08:34:33.905Z,8.39
2018-12-08T08:35:33.886Z,8.37
2018-12-08T08:36:33.860Z,8.35
2018-12-08T08:37:33.916Z,8.26
2018-12-08T08:38:33.872Z,8.40
2018-12-08T08:39:33.802Z,8.37
2018-12-08T08:40:33.780Z,8.22
2018-12-08T08:41:33.777Z,8.29
2018-12-08T08:42:33.726Z,8.26
2018-12-08T08:43:33.701Z,8.14
2018-12-08T08:44:33.681Z,8.15
2018-12-08T08:45:33.671Z,8.08
2018-12-08T08:46:33.660Z,8.00
2018-12-08T08:47:33.604Z,7.97
2018-12-08T08:48:33.591Z,7.90
2018-12-08T08:49:33.579Z,7.71
2018-12-08T08:50:33.543Z,7.72
2018-12-08T08:51:33.590Z,7.77
2018-12-08T08:52:33.501Z,7.72
2018-12-08T08:53:33.473Z,7.60
2018-12-08T08:54:33.475Z,7.55
2018-12-08T08:55:33.458Z,7.58
2018-12-08T08:56:33.405Z,7.52
2018-12-08T08:57:33.387Z,7.66
2018-12-08T08:58:33.354Z,7.67
2018-12-08T08:59:33.329Z,7.50
2018-12-08T09:00:33.307Z,7.59
2018-12-08T09:01:33.285Z,7.56
2018-12-08T09:02:33.260Z,7.55
2018-12-08T09:03:33.234Z,7.55
2018-12-08T09:04:33.212Z,7.50
2018-12-08T09:05:33.189Z,7.71
2018-12-08T09:06:33.910Z,7.67
2018-12-08T09:07:33.199Z,7.66
2018-12-08T09:08:33.155Z,7.77
2018-12-08T09:09:33.161Z,7.67
2018-12-08T09:10:33.104Z,7.69
2018-12-08T09:11:33.059Z,7.69
2018-12-08T09:12:33.033Z,7.69
2018-12-08T09:13:33.061Z,7.60
2018-12-08T09:14:32.989Z,7.67
2018-12-08T09:15:32.964Z,7.52
2018-12-08T09:16:32.950Z,7.56
2018-12-08T09:17:32.935Z,7.56
2018-12-08T09:18:32.893Z,7.49
2018-12-08T09:19:32.896Z,7.49
2018-12-08T09:20:32.874Z,7.35
2018-12-08T09:21:32.836Z,7.41
2018-12-08T09:22:32.810Z,7.44
2018-12-08T09:23:32.785Z,7.45
2018-12-08T09:24:32.755Z,7.38
2018-12-08T09:25:32.733Z,7.38
2018-12-08T09:26:32.748Z,7.40
2018-12-08T09:27:32.685Z,7.32
2018-12-08T09:28:32.679Z,7.40
2018-12-08T09:29:32.650Z,7.41
2018-12-08T09:30:32.615Z,7.41
2018-12-08T09:31:32.638Z,7.44
2018-12-08T09:32:32.599Z,7.35
2018-12-08T09:33:32.554Z,7.55
2018-12-08T09:34:32.546Z,7.53
2018-12-08T09:35:32.504Z,7.56
2018-12-08T09:36:32.508Z,7.53
2018-12-08T09:37:32.472Z,7.55
2018-12-08T09:38:32.469Z,7.56
2018-12-08T09:39:32.408Z,7.69
2018-12-08T09:40:32.392Z,7.56
2018-12-08T09:41:32.364Z,7.59
2018-12-08T09:42:32.348Z,7.53
2018-12-08T09:43:32.329Z,7.67
2018-12-08T09:44:32.335Z,7.77
2018-12-08T09:45:32.303Z,7.75
2018-12-08T09:46:32.245Z,7.81
2018-12-08T09:47:32.276Z,7.78
2018-12-08T09:48:32.230Z,7.84
2018-12-08T09:49:32.182Z,7.82
2018-12-08T09:50:32.176Z,7.85
2018-12-08T09:51:32.139Z,7.84
2018-12-08T09:52:32.163Z,7.79
2018-12-08T09:53:32.085Z,7.75
2018-12-08T09:54:32.112Z,7.82
2018-12-08T09:55:32.056Z,7.69
2018-12-08T09:56:32.067Z,7.77
2018-12-08T09:57:31.995Z,7.62
2018-12-08T09:58:31.970Z,7.59
2018-12-08T09:59:31.957Z,7.50
2018-12-08T10:00:31.928Z,7.52
2018-12-08T10:01:32.428Z,7.49
2018-12-08T10:02:31.878Z,7.35
2018-12-08T10:03:31.863Z,7.41
2018-12-08T10:04:31.835Z,7.40
2018-12-08T10:05:31.812Z,7.38
2018-12-08T10:06:31.792Z,7.38
2018-12-08T10:07:32.757Z,7.31
2018-12-08T10:08:31.748Z,7.32
2018-12-08T10:09:31.719Z,7.29
2018-12-08T10:10:31.692Z,7.27
2018-12-08T10:11:32.428Z,7.27
2018-12-08T10:12:31.661Z,7.24
2018-12-08T10:13:31.623Z,7.27
2018-12-08T10:14:31.609Z,7.34
2018-12-08T10:15:31.587Z,7.35
2018-12-08T10:16:31.555Z,7.38
2018-12-08T10:17:31.562Z,7.40
2018-12-08T10:18:31.520Z,7.40
2018-12-08T10:19:31.510Z,7.35
2018-12-08T10:20:31.466Z,7.37
2018-12-08T10:21:31.446Z,7.42
2018-12-08T10:22:31.428Z,7.44
2018-12-08T10:23:31.401Z,7.47
2018-12-08T10:24:31.375Z,7.41
2018-12-08T10:25:31.360Z,7.45
2018-12-08T10:26:31.324Z,7.53
2018-12-08T10:27:31.304Z,7.69
2018-12-08T10:28:31.285Z,7.60
2018-12-08T10:29:31.251Z,7.59
2018-12-08T10:30:31.234Z,7.75
2018-12-08T10:31:31.222Z,7.60
2018-12-08T10:32:31.206Z,7.71
2018-12-08T10:33:31.202Z,7.72
2018-12-08T10:34:31.155Z,7.69
2018-12-08T10:35:31.129Z,7.79
2018-12-08T10:36:31.097Z,7.78
2018-12-08T10:37:31.081Z,7.90
2018-12-08T10:38:31.052Z,7.92
2018-12-08T10:39:31.030Z,7.90
2018-12-08T10:40:31.020Z,7.90
2018-12-08T10:41:30.987Z,7.96
2018-12-08T10:42:30.981Z,8.02
2018-12-08T10:43:30.978Z,8.04
2018-12-08T10:44:30.913Z,8.08
2018-12-08T10:45:30.893Z,8.07
2018-12-08T10:46:30.874Z,8.10
2018-12-08T10:47:30.855Z,8.03
2018-12-08T10:48:30.832Z,8.14
2018-12-08T10:49:30.797Z,8.11
2018-12-08T10:50:30.801Z,8.11
2018-12-08T10:51:30.765Z,8.29
2018-12-08T10:52:30.758Z,8.25
2018-12-08T10:53:30.721Z,8.33
2018-12-08T10:54:30.714Z,8.35
2018-12-08T10:55:30.676Z,8.32
2018-12-08T10:56:30.658Z,8.29
2018-12-08T10:57:30.620Z,8.28
2018-12-08T10:58:30.600Z,8.28
2018-12-08T10:59:30.577Z,8.30
2018-12-08T11:00:30.555Z,8.22
2018-12-08T11:01:30.538Z,8.35
2018-12-08T11:02:30.541Z,8.28
2018-12-08T11:03:30.507Z,8.29
2018-12-08T11:04:30.504Z,8.36
2018-12-08T11:05:30.450Z,8.37
2018-12-08T11:06:30.431Z,8.42
2018-12-08T11:07:30.417Z,8.42
2018-12-08T11:08:30.392Z,8.45
2018-12-08T11:09:30.357Z,8.51
2018-12-08T11:10:30.334Z,8.51
2018-12-08T11:11:30.308Z,8.57
2018-12-08T11:12:30.286Z,8.66
2018-12-08T11:13:30.261Z,8.66
2018-12-08T11:14:30.235Z,8.69
2018-12-08T11:15:30.219Z,8.75
2018-12-08T11:16:30.194Z,8.79
2018-12-08T11:17:30.177Z,8.97
2018-12-08T11:18:30.149Z,9.27
2018-12-08T11:19:30.139Z,9.20
2018-12-08T11:20:30.105Z,9.31
2018-12-08T11:21:30.939Z,9.25
2018-12-08T11:22:30.070Z,9.24
2018-12-08T11:23:30.057Z,9.13
2018-12-08T11:24:30.025Z,8.99
2018-12-08T11:25:30.013Z,8.96
2018-12-08T11:26:30.003Z,8.88
2018-12-08T11:27:30.010Z,8.87
2018-12-08T11:28:29.943Z,8.79
2018-12-08T11:29:29.916Z,8.84
2018-12-08T11:30:31.389Z,8.75
2018-12-08T11:31:29.866Z,8.75
2018-12-08T11:32:29.844Z,8.71
2018-12-08T11:33:29.828Z,8.75
2018-12-08T11:34:29.805Z,8.79
2018-12-08T11:35:29.805Z,8.83
2018-12-08T11:36:29.762Z,8.87
2018-12-08T11:37:29.741Z,8.87
2018-12-08T11:38:29.729Z,8.94
2018-12-08T11:39:29.698Z,8.88
2018-12-08T11:40:29.679Z,8.76
2018-12-08T11:41:29.664Z,8.90
2018-12-08T11:42:29.647Z,8.90
2018-12-08T11:43:29.616Z,8.81
2018-12-08T11:44:29.678Z,8.83
2018-12-08T11:45:29.580Z,8.83
2018-12-08T11:46:29.555Z,8.75
2018-12-08T11:47:29.542Z,8.76
2018-12-08T11:48:29.507Z,8.62
2018-12-08T11:49:29.483Z,8.57
2018-12-08T11:50:29.460Z,8.57
2018-12-08T11:51:29.434Z,8.65
2018-12-08T11:52:29.438Z,8.60
2018-12-08T11:53:29.399Z,8.60
2018-12-08T11:54:29.372Z,8.62
2018-12-08T11:55:30.449Z,8.62
2018-12-08T11:56:39.054Z,8.62
2018-12-08T11:58:22.707Z,8.72
2018-12-08T11:59:22.686Z,8.71
2018-12-08T12:00:22.653Z,8.79
2018-12-08T12:01:22.628Z,8.72
2018-12-08T12:02:22.621Z,8.78
2018-12-08T12:03:22.583Z,8.84
2018-12-08T12:04:22.564Z,8.81
2018-12-08T12:05:22.554Z,8.79
2018-12-08T12:06:22.535Z,8.84
2018-12-08T12:07:22.515Z,9.01
2018-12-08T12:08:22.487Z,9.09
2018-12-08T12:09:22.502Z,9.18
2018-12-08T12:10:22.459Z,9.09
2018-12-08T12:11:22.425Z,9.24
2018-12-08T12:12:22.457Z,9.23
2018-12-08T12:13:22.371Z,9.38
2018-12-08T12:14:22.387Z,9.46
2018-12-08T12:15:22.386Z,9.66
2018-12-08T12:16:22.299Z,9.68
2018-12-08T12:17:22.314Z,9.57
2018-12-08T12:18:22.260Z,9.88
2018-12-08T12:19:22.250Z,9.99
2018-12-08T12:20:22.219Z,10.30
2018-12-08T12:21:22.209Z,10.46
2018-12-08T12:22:22.202Z,10.78
2018-12-08T12:23:22.158Z,11.06
2018-12-08T12:24:22.152Z,10.76
2018-12-08T12:25:22.241Z,10.66
2018-12-08T12:26:22.098Z,10.30
2018-12-08T12:27:22.134Z,10.15
2018-12-08T12:28:22.064Z,9.78
2018-12-08T12:29:22.069Z,9.58
2018-12-08T12:30:22.048Z,9.48
2018-12-08T12:31:22.004Z,9.34
2018-12-08T12:32:22.006Z,9.48
2018-12-08T12:33:21.968Z,9.46
2018-12-08T12:34:21.949Z,9.38
2018-12-08T12:35:21.948Z,9.35
2018-12-08T12:36:21.903Z,9.27
2018-12-08T12:37:21.899Z,9.10
2018-12-08T12:38:21.864Z,9.12
2018-12-08T12:39:21.852Z,9.05
2018-12-08T12:40:22.711Z,9.01
2018-12-08T12:41:21.808Z,8.86
2018-12-08T12:42:21.780Z,8.91
2018-12-08T12:43:21.762Z,8.97
2018-12-08T12:44:21.742Z,8.99
2018-12-08T12:45:21.724Z,9.02
2018-12-08T12:46:21.701Z,8.88
2018-12-08T12:47:21.674Z,8.99
2018-12-08T12:48:21.669Z,8.94
2018-12-08T12:49:21.649Z,8.99
2018-12-08T12:50:21.615Z,9.10
2018-12-08T12:51:21.590Z,9.10
2018-12-08T12:52:21.573Z,9.10
2018-12-08T12:53:21.577Z,9.09
2018-12-08T12:54:21.563Z,9.15
2018-12-08T12:55:21.509Z,9.12
2018-12-08T12:56:21.522Z,9.16
2018-12-08T12:57:21.489Z,9.18
2018-12-08T12:58:21.531Z,9.16
2018-12-08T12:59:21.445Z,9.18
2018-12-08T13:00:21.468Z,9.12
2018-12-08T13:01:21.425Z,8.99
2018-12-08T13:02:21.409Z,9.09
2018-12-08T13:03:21.473Z,9.06
2018-12-08T13:04:21.334Z,9.10
2018-12-08T13:05:21.295Z,9.10
2018-12-08T13:06:21.302Z,9.13
2018-12-08T13:07:21.243Z,9.13
2018-12-08T13:08:21.232Z,9.10
2018-12-08T13:09:21.218Z,9.05
2018-12-08T13:10:21.197Z,9.09
2018-12-08T13:11:21.171Z,9.13
2018-12-08T13:12:21.145Z,9.20
2018-12-08T13:13:21.120Z,9.23
2018-12-08T13:14:21.105Z,9.24
2018-12-08T13:15:21.084Z,9.18
2018-12-08T13:16:21.722Z,9.21
2018-12-08T13:17:21.067Z,9.15
2018-12-08T13:18:21.018Z,9.16
2018-12-08T13:19:20.998Z,9.15